Time;durP1;ratioP1;P1;durP2;ratioP2;P2;SDS_P1;SDS_P2;PMS_P1;PMS_P2;Temp;Humidity;BMP_temperature;BMP_pressure;BME280_temperature;BME280_humidity;BME280_pressure;Samples;Min_cycle;Max_cycle;Signal;HPM_P1;HPM_P2
2023/05/06 00:00:36;;;;;;;5.60;4.28;;;;;;;12.92;100.00;96351.25;5089526;28;20048;-74
2023/05/06 00:03:05;;;;;;;9.95;4.30;;;;;;;12.91;100.00;96349.66;5089134;28;20040;-76
2023/05/06 00:05:31;;;;;;;7.13;4.20;;;;;;;12.87;100.00;96338.56;5088760;28;20496;-74
2023/05/06 00:07:57;;;;;;;5.80;4.32;;;;;;;12.87;100.00;96345.97;5091989;28;20755;-75
2023/05/06 00:10:24;;;;;;;5.80;4.20;;;;;;;12.85;100.00;96340.06;5091027;28;20036;-75
2023/05/06 00:12:51;;;;;;;6.50;4.45;;;;;;;12.84;100.00;96344.69;5093442;28;20044;-74
2023/05/06 00:15:17;;;;;;;5.43;4.00;;;;;;;12.85;100.00;96342.78;5093504;28;20043;-75
2023/05/06 00:17:44;;;;;;;5.30;4.22;;;;;;;12.84;100.00;96338.44;5093647;28;20054;-75
2023/05/06 00:20:13;;;;;;;5.78;4.20;;;;;;;12.83;100.00;96342.28;5091667;28;20046;-76
2023/05/06 00:22:40;;;;;;;6.80;4.35;;;;;;;12.82;100.00;96332.50;5093508;28;20044;-74
2023/05/06 00:25:07;;;;;;;5.85;4.30;;;;;;;12.79;100.00;96336.72;5093046;28;20040;-75
2023/05/06 00:27:33;;;;;;;7.28;5.00;;;;;;;12.77;100.00;96336.22;5093612;28;20054;-75
2023/05/06 00:30:00;;;;;;;6.30;4.38;;;;;;;12.73;100.00;96327.09;5091604;28;20035;-75
2023/05/06 00:32:26;;;;;;;6.32;4.22;;;;;;;12.69;100.00;96326.19;5093075;28;20051;-75
2023/05/06 00:34:53;;;;;;;5.50;4.50;;;;;;;12.69;100.00;96324.25;5093264;28;20052;-74
2023/05/06 00:37:20;;;;;;;5.68;4.10;;;;;;;12.66;100.00;96322.16;5092459;28;20055;-74
2023/05/06 00:39:47;;;;;;;6.47;4.50;;;;;;;12.62;100.00;96321.22;5091480;28;20518;-75
2023/05/06 00:42:14;;;;;;;7.30;4.43;;;;;;;12.62;100.00;96320.41;5092687;28;20411;-75
2023/05/06 00:44:40;;;;;;;5.28;4.00;;;;;;;12.59;100.00;96316.44;5093324;28;20051;-75
2023/05/06 00:47:07;;;;;;;5.07;4.28;;;;;;;12.58;100.00;96314.84;5092702;28;20521;-75
2023/05/06 00:49:34;;;;;;;6.68;4.30;;;;;;;12.58;100.00;96314.00;5091937;28;20044;-75
2023/05/06 00:52:01;;;;;;;6.22;4.70;;;;;;;12.55;100.00;96310.03;5092996;28;20636;-75
2023/05/06 00:54:29;;;;;;;6.05;4.75;;;;;;;12.53;100.00;96313.09;5092843;28;20149;-75
2023/05/06 00:56:56;;;;;;;7.88;4.80;;;;;;;12.49;100.00;96305.91;5092367;28;20043;-75
2023/05/06 00:59:22;;;;;;;7.30;4.70;;;;;;;12.48;100.00;96309.75;5090858;28;20053;-75
2023/05/06 01:01:51;;;;;;;6.70;4.55;;;;;;;12.49;100.00;96309.44;5092813;28;20067;-75
2023/05/06 01:04:17;;;;;;;6.88;5.00;;;;;;;12.50;100.00;96307.50;5092503;28;20052;-75
2023/05/06 01:06:50;;;;;;;7.57;5.47;;;;;;;12.42;100.00;96300.13;5091265;28;20577;-77
2023/05/06 01:09:21;;;;;;;8.20;4.70;;;;;;;12.44;100.00;96297.91;5092120;28;20047;-75
2023/05/06 01:11:52;;;;;;;6.07;4.70;;;;;;;12.40;100.00;96305.94;5092658;28;20044;-75
2023/05/06 01:14:28;;;;;;;9.30;5.55;;;;;;;12.37;100.00;96303.88;5092525;28;20495;-75
2023/05/06 01:16:58;;;;;;;7.25;5.15;;;;;;;12.29;100.00;96302.00;5090707;28;20709;-75
2023/05/06 01:19:37;;;;;;;7.65;4.85;;;;;;;12.24;100.00;96302.97;5090534;28;20040;-75
2023/05/06 01:22:06;;;;;;;6.05;5.00;;;;;;;12.27;100.00;96299.59;5091706;28;20040;-75
2023/05/06 01:24:39;;;;;;;7.65;4.90;;;;;;;12.33;100.00;96307.59;5092559;28;20066;-75
2023/05/06 01:27:05;;;;;;;7.32;5.03;;;;;;;12.32;100.00;96305.97;5091366;27;20044;-75
2023/05/06 01:29:34;;;;;;;8.57;5.75;;;;;;;12.31;100.00;96298.91;5090492;28;20044;-75
2023/05/06 01:32:12;;;;;;;7.20;5.32;;;;;;;12.14;100.00;96295.16;5092263;28;20083;-74
2023/05/06 01:34:43;;;;;;;7.28;5.25;;;;;;;12.24;100.00;96299.44;5090573;28;20044;-75
2023/05/06 01:37:17;;;;;;;7.50;5.32;;;;;;;12.28;100.00;96300.41;5084027;28;20479;-75
2023/05/06 01:39:47;;;;;;;8.82;4.57;;;;;;;12.27;100.00;96294.13;5091463;28;20063;-74
2023/05/06 01:42:15;;;;;;;7.78;5.55;;;;;;;12.27;100.00;96294.13;5091849;28;20546;-74
2023/05/06 01:44:43;;;;;;;8.18;5.68;;;;;;;12.15;100.00;96287.78;5092231;28;20048;-76
2023/05/06 01:47:11;;;;;;;6.57;4.80;;;;;;;12.19;100.00;96294.97;5091481;28;20048;-75
2023/05/06 01:49:38;;;;;;;9.85;6.28;;;;;;;12.22;100.00;96296.25;5090221;28;20047;-74
2023/05/06 01:52:05;;;;;;;8.27;5.13;;;;;;;12.23;100.00;96298.66;5091174;28;20407;-75
2023/05/06 01:54:31;;;;;;;5.72;4.95;;;;;;;12.24;100.00;96297.53;5092279;28;20036;-75
2023/05/06 01:56:59;;;;;;;7.18;5.47;;;;;;;12.18;100.00;96307.03;5091819;28;20044;-74
2023/05/06 01:59:26;;;;;;;8.98;5.97;;;;;;;12.04;100.00;96300.19;5089532;27;20051;-75
2023/05/06 02:01:52;;;;;;;7.00;5.60;;;;;;;12.00;100.00;96300.03;5091904;28;20040;-74
2023/05/06 02:04:19;;;;;;;8.68;6.22;;;;;;;12.09;100.00;96300.81;5092134;28;20403;-75
2023/05/06 02:06:45;;;;;;;7.47;5.32;;;;;;;12.09;100.00;96306.28;5092769;28;20044;-75
2023/05/06 02:09:12;;;;;;;6.63;5.43;;;;;;;12.11;100.00;96306.75;5091611;28;20040;-75
2023/05/06 02:11:38;;;;;;;7.90;5.40;;;;;;;12.12;100.00;96302.09;5090484;28;20040;-76
2023/05/06 02:14:06;;;;;;;7.68;5.35;;;;;;;12.14;100.00;96297.91;5092106;28;20036;-76
2023/05/06 02:16:33;;;;;;;7.70;5.38;;;;;;;12.13;100.00;96301.75;5092113;28;20044;-75
2023/05/06 02:19:00;;;;;;;7.72;6.18;;;;;;;12.00;100.00;96294.59;5091291;28;20040;-74
2023/05/06 02:21:26;;;;;;;9.77;6.82;;;;;;;11.77;100.00;96286.63;5090146;28;20036;-74
2023/05/06 02:23:53;;;;;;;6.93;5.88;;;;;;;11.86;100.00;96291.31;5091210;28;20499;-74
2023/05/06 02:26:19;;;;;;;8.75;6.55;;;;;;;11.93;100.00;96299.75;5090986;28;20048;-73
2023/05/06 02:28:46;;;;;;;9.45;5.78;;;;;;;11.94;100.00;96291.25;5090531;28;20044;-73
2023/05/06 02:31:14;;;;;;;9.25;6.28;;;;;;;11.97;100.00;96295.25;5088468;28;20040;-74
2023/05/06 02:33:41;;;;;;;7.85;6.03;;;;;;;11.99;100.00;96298.44;5091097;28;20561;-73
2023/05/06 02:36:08;;;;;;;8.73;5.65;;;;;;;11.98;100.00;96296.84;5090867;28;20036;-74
2023/05/06 02:38:34;;;;;;;8.70;6.18;;;;;;;11.91;100.00;96297.38;5091459;28;20526;-74
2023/05/06 02:41:01;;;;;;;8.07;5.97;;;;;;;11.94;100.00;96298.63;5089456;28;20051;-74
2023/05/06 02:43:27;;;;;;;7.68;5.93;;;;;;;11.86;100.00;96296.75;5090675;28;20054;-74
2023/05/06 02:45:54;;;;;;;8.85;5.85;;;;;;;11.84;100.00;96290.81;5090610;28;20510;-74
2023/05/06 02:48:21;;;;;;;8.10;5.97;;;;;;;11.88;100.00;96286.31;5090595;28;20380;-74
2023/05/06 02:50:48;;;;;;;7.43;5.35;;;;;;;11.93;100.00;96283.41;5089368;28;20040;-73
2023/05/06 02:53:14;;;;;;;7.35;5.57;;;;;;;11.88;100.00;96289.03;5090372;28;20040;-74
2023/05/06 02:55:41;;;;;;;7.18;5.68;;;;;;;11.86;100.00;96280.38;5090330;28;20058;-74
2023/05/06 02:58:07;;;;;;;8.95;5.22;;;;;;;11.94;100.00;96285.78;5090231;28;20044;-74
2023/05/06 03:00:34;;;;;;;8.23;5.68;;;;;;;11.99;100.00;96288.31;5089194;27;20039;-74
2023/05/06 03:03:00;;;;;;;8.18;5.68;;;;;;;11.92;100.00;96281.78;5090589;28;20047;-73
2023/05/06 03:05:28;;;;;;;7.25;5.20;;;;;;;11.95;100.00;96286.59;5090373;28;20036;-74
2023/05/06 03:07:55;;;;;;;8.20;5.03;;;;;;;11.89;100.00;96293.34;5090600;28;20040;-74
2023/05/06 03:10:21;;;;;;;7.90;5.35;;;;;;;11.89;100.00;96287.91;5088230;28;20044;-74
2023/05/06 03:12:48;;;;;;;6.55;4.60;;;;;;;11.92;100.00;96287.25;5090284;28;20040;-73
2023/05/06 03:15:14;;;;;;;10.80;5.50;;;;;;;11.68;100.00;96285.84;5089964;28;20032;-73
2023/05/06 03:17:41;;;;;;;7.15;4.80;;;;;;;11.84;100.00;96285.34;5090447;28;20055;-75
2023/05/06 03:20:09;;;;;;;6.03;4.63;;;;;;;11.91;100.00;96275.53;5088555;27;20044;-74
2023/05/06 03:22:36;;;;;;;6.18;4.80;;;;;;;11.89;100.00;96285.16;5090385;28;20044;-73
2023/05/06 03:25:04;;;;;;;7.80;5.25;;;;;;;11.88;100.00;96283.56;5088564;28;20055;-74
2023/05/06 03:27:30;;;;;;;9.75;4.90;;;;;;;11.79;100.00;96280.03;5089188;28;20490;-74
2023/05/06 03:29:57;;;;;;;6.28;5.10;;;;;;;11.88;100.00;96284.38;5089027;28;20047;-74
2023/05/06 03:32:23;;;;;;;7.10;5.63;;;;;;;11.96;100.00;96283.53;5088375;28;20172;-74
2023/05/06 03:34:50;;;;;;;6.38;4.97;;;;;;;11.97;100.00;96274.22;5089138;28;20055;-74
2023/05/06 03:37:16;;;;;;;4.97;4.13;;;;;;;11.98;100.00;96281.28;5090095;28;20036;-74
2023/05/06 03:39:44;;;;;;;5.32;4.35;;;;;;;11.99;100.00;96282.88;5090006;28;20048;-73
2023/05/06 03:42:10;;;;;;;6.13;4.53;;;;;;;11.98;100.00;96281.28;5088891;28;20040;-73
2023/05/06 03:44:37;;;;;;;8.25;4.70;;;;;;;11.91;100.00;96280.19;5090988;28;20044;-74
2023/05/06 03:47:03;;;;;;;6.30;4.90;;;;;;;11.96;100.00;96288.22;5084390;28;20044;-74
2023/05/06 03:49:30;;;;;;;6.50;5.00;;;;;;;11.88;100.00;96289.03;5094620;28;20066;-74
2023/05/06 03:51:56;;;;;;;6.18;4.78;;;;;;;11.91;100.00;96274.75;5093180;28;20047;-74
2023/05/06 03:54:23;;;;;;;6.00;5.00;;;;;;;11.94;100.00;96284.97;5093343;28;20047;-74
2023/05/06 03:56:51;;;;;;;6.35;4.88;;;;;;;11.91;100.00;96277.47;5093645;28;20048;-74
2023/05/06 03:59:17;;;;;;;6.95;5.28;;;;;;;11.91;100.00;96280.19;5093188;28;20044;-74
2023/05/06 04:01:43;;;;;;;6.72;4.68;;;;;;;11.83;100.00;96272.84;5089855;28;20047;-73
2023/05/06 04:04:10;;;;;;;6.35;4.55;;;;;;;11.85;100.00;96276.84;5094428;28;20048;-74
2023/05/06 04:06:37;;;;;;;7.53;5.40;;;;;;;11.84;100.00;96274.44;5097921;28;20067;-74
2023/05/06 04:09:05;;;;;;;6.35;5.00;;;;;;;11.88;100.00;96269.94;5100893;28;20048;-74
2023/05/06 04:11:31;;;;;;;8.30;5.18;;;;;;;11.93;100.00;96275.19;5098954;28;20103;-74
2023/05/06 04:13:59;;;;;;;8.02;5.35;;;;;;;11.90;100.00;96279.41;5097629;28;20040;-74
2023/05/06 04:16:26;;;;;;;9.20;6.03;;;;;;;11.89;100.00;96282.44;5098081;28;20555;-74
2023/05/06 04:18:54;;;;;;;7.90;6.13;;;;;;;11.84;100.00;96290.81;5098394;28;20052;-74
2023/05/06 04:21:20;;;;;;;9.80;6.10;;;;;;;11.70;100.00;96283.63;5096120;28;20070;-73
2023/05/06 04:23:47;;;;;;;7.40;6.03;;;;;;;11.84;100.00;96285.34;5097826;28;20495;-74
2023/05/06 04:26:14;;;;;;;11.02;6.30;;;;;;;11.64;100.00;96292.28;5096335;28;20415;-74
2023/05/06 04:28:40;;;;;;;9.10;6.30;;;;;;;11.67;100.00;96295.16;5095344;28;20066;-74
2023/05/06 04:31:09;;;;;;;10.50;6.38;;;;;;;11.70;100.00;96297.25;5094859;28;20044;-74
2023/05/06 04:33:36;;;;;;;9.05;5.97;;;;;;;11.83;100.00;96292.75;5096648;28;20040;-75
2023/05/06 04:36:02;;;;;;;7.13;5.47;;;;;;;11.94;100.00;96304.09;5095751;28;20052;-74
2023/05/06 04:38:30;;;;;;;10.00;6.10;;;;;;;12.02;100.00;96297.81;5091552;28;20051;-74
2023/05/06 04:40:57;;;;;;;8.15;6.05;;;;;;;12.05;100.00;96302.59;5097142;28;20051;-74
2023/05/06 04:43:26;;;;;;;7.80;5.65;;;;;;;12.09;100.00;96311.72;5091932;28;20044;-73
2023/05/06 04:45:53;;;;;;;8.23;5.75;;;;;;;12.10;100.00;96313.31;5096330;28;20056;-74
2023/05/06 04:48:21;;;;;;;9.07;6.43;;;;;;;12.00;100.00;96313.69;5097550;28;20146;-74
2023/05/06 04:50:48;;;;;;;9.32;6.15;;;;;;;12.07;100.00;96316.72;5095419;28;20066;-73
2023/05/06 04:53:15;;;;;;;7.65;5.63;;;;;;;12.07;100.00;96311.28;5098118;28;20051;-74
2023/05/06 04:55:42;;;;;;;11.05;6.95;;;;;;;12.01;100.00;96318.03;5102013;28;20483;-73
2023/05/06 04:58:09;;;;;;;9.50;6.75;;;;;;;11.92;100.00;96330.91;5102142;28;20049;-74
2023/05/06 05:00:35;;;;;;;9.40;5.90;;;;;;;12.01;100.00;96323.50;5102659;28;20683;-74
2023/05/06 05:03:02;;;;;;;9.93;6.38;;;;;;;12.07;100.00;96333.09;5099909;28;20048;-74
2023/05/06 05:05:32;;;;;;;9.15;6.30;;;;;;;12.14;100.00;96333.38;5102215;28;20044;-74
2023/05/06 05:07:59;;;;;;;9.55;5.82;;;;;;;12.17;100.00;96338.19;5101874;28;20081;-74
2023/05/06 05:10:25;;;;;;;12.52;7.10;;;;;;;12.11;100.00;96339.50;5101840;28;20044;-74
2023/05/06 05:12:52;;;;;;;10.82;6.72;;;;;;;12.22;100.00;96345.41;5099714;28;20052;-74
2023/05/06 05:15:19;;;;;;;9.77;7.18;;;;;;;12.00;100.00;96349.97;5098624;28;20047;-74
2023/05/06 05:17:46;;;;;;;11.23;7.47;;;;;;;11.91;100.00;96341.03;5089914;28;20085;-73
2023/05/06 05:20:13;;;;;;;9.98;7.18;;;;;;;11.73;100.00;96344.91;5092850;28;20101;-73
2023/05/06 05:22:41;;;;;;;12.70;7.93;;;;;;;11.69;100.00;96339.31;5095157;28;20047;-73
2023/05/06 05:25:08;;;;;;;14.27;8.77;;;;;;;11.79;100.00;96340.06;5095709;28;20052;-74
2023/05/06 05:27:34;;;;;;;12.88;9.60;;;;;;;11.72;100.00;96344.09;5096069;28;20055;-75
2023/05/06 05:30:00;;;;;;;13.25;8.82;;;;;;;11.89;100.00;96350.66;5096621;28;20052;-73
2023/05/06 05:32:27;;;;;;;14.70;9.50;;;;;;;11.92;100.00;96352.75;5094866;28;20373;-73
2023/05/06 05:34:53;;;;;;;12.55;8.80;;;;;;;11.82;100.00;96350.38;5096073;28;20078;-75
2023/05/06 05:37:20;;;;;;;14.77;8.73;;;;;;;11.97;100.00;96355.28;5095594;28;20040;-75
2023/05/06 05:39:48;;;;;;;13.55;10.02;;;;;;;11.93;100.00;96351.59;5096351;28;20047;-74
2023/05/06 05:42:14;;;;;;;11.63;9.35;;;;;;;11.95;100.00;96352.06;5093211;28;20059;-74
2023/05/06 05:44:40;;;;;;;12.20;9.20;;;;;;;12.14;100.00;96348.97;5093601;28;20040;-75
2023/05/06 05:47:07;;;;;;;13.63;10.90;;;;;;;12.14;100.00;96343.50;5092982;28;20495;-74
2023/05/06 05:49:33;;;;;;;16.38;11.95;;;;;;;12.32;100.00;96357.84;5093702;28;20071;-75
2023/05/06 05:52:00;;;;;;;21.30;13.23;;;;;;;12.47;100.00;96352.63;5089768;28;20055;-75
2023/05/06 05:54:26;;;;;;;18.23;13.40;;;;;;;12.39;100.00;96356.22;5091130;28;20036;-74
2023/05/06 05:56:54;;;;;;;19.40;12.65;;;;;;;12.42;100.00;96352.03;5091821;28;20309;-74
2023/05/06 05:59:21;;;;;;;16.60;12.52;;;;;;;12.62;100.00;96354.00;5092036;28;20484;-75
2023/05/06 06:01:47;;;;;;;19.27;14.27;;;;;;;12.63;100.00;96352.88;5091150;28;20123;-73
2023/05/06 06:04:14;;;;;;;19.33;13.85;;;;;;;12.71;100.00;96351.22;5091511;28;20066;-74
2023/05/06 06:06:41;;;;;;;19.08;13.10;;;;;;;12.71;100.00;96360.22;5091917;28;20119;-74
2023/05/06 06:09:08;;;;;;;21.35;14.48;;;;;;;12.77;100.00;96367.09;5091093;28;20047;-74
2023/05/06 06:11:35;;;;;;;20.50;14.27;;;;;;;12.66;100.00;96359.63;5090837;28;20051;-75
2023/05/06 06:14:03;;;;;;;20.80;13.35;;;;;;;12.74;100.00;96356.84;5091384;28;20048;-74
2023/05/06 06:16:29;;;;;;;18.65;12.82;;;;;;;12.86;100.00;96369.78;5091251;28;20044;-73
2023/05/06 06:18:56;;;;;;;19.55;13.98;;;;;;;12.90;100.00;96364.44;5091511;28;20044;-74
2023/05/06 06:21:22;;;;;;;22.70;14.60;;;;;;;12.88;100.00;96361.22;5091243;28;20051;-73
2023/05/06 06:23:49;;;;;;;17.80;13.30;;;;;;;12.85;100.00;96361.91;5089450;28;20109;-74
2023/05/06 06:26:15;;;;;;;18.05;13.20;;;;;;;13.00;100.00;96369.53;5090769;28;20683;-74
2023/05/06 06:28:43;;;;;;;15.50;12.10;;;;;;;12.78;100.00;96368.69;5091724;28;20054;-74
2023/05/06 06:31:11;;;;;;;16.40;12.40;;;;;;;13.07;100.00;96376.03;5089704;28;20116;-75
2023/05/06 06:33:38;;;;;;;15.32;11.50;;;;;;;12.92;100.00;96378.56;5090271;28;20036;-74
2023/05/06 06:36:05;;;;;;;15.18;10.45;;;;;;;12.98;100.00;96388.16;5090919;28;20052;-75
2023/05/06 06:38:32;;;;;;;13.93;11.48;;;;;;;12.96;100.00;96379.50;5091290;28;20047;-74
2023/05/06 06:40:58;;;;;;;14.20;10.48;;;;;;;13.03;100.00;96385.25;5090367;28;20052;-74
2023/05/06 06:43:25;;;;;;;15.55;11.13;;;;;;;13.17;100.00;96382.25;5089052;28;20044;-75
2023/05/06 06:45:52;;;;;;;19.55;10.85;;;;;;;13.08;100.00;96385.03;5091035;28;20040;-74
2023/05/06 06:48:20;;;;;;;13.88;10.65;;;;;;;12.98;100.00;96382.69;5090481;28;22165;-74
2023/05/06 06:50:46;;;;;;;13.20;10.50;;;;;;;13.06;100.00;96388.13;5091285;28;20505;-74
2023/05/06 06:53:13;;;;;;;15.35;10.55;;;;;;;13.30;100.00;96395.66;5089010;28;20048;-75
2023/05/06 06:55:43;;;;;;;18.30;11.40;;;;;;;13.34;100.00;96392.28;5090989;28;20051;-74
2023/05/06 06:58:10;;;;;;;13.30;10.80;;;;;;;13.50;100.00;96391.31;5088952;28;20054;-75
2023/05/06 07:00:36;;;;;;;13.73;10.73;;;;;;;13.45;100.00;96393.47;5090832;28;20487;-75
2023/05/06 07:03:03;;;;;;;15.45;10.10;;;;;;;13.24;100.00;96396.22;5089494;28;20051;-76
2023/05/06 07:05:31;;;;;;;13.75;10.55;;;;;;;13.26;100.00;96394.75;5091063;28;20040;-74
2023/05/06 07:07:57;;;;;;;14.15;10.82;;;;;;;13.28;100.00;96391.69;5090920;28;20044;-75
2023/05/06 07:10:24;;;;;;;15.27;9.90;;;;;;;13.42;100.00;96396.88;5090644;28;20040;-74
2023/05/06 07:12:50;;;;;;;14.45;10.27;;;;;;;13.26;100.00;96399.44;5088907;28;20373;-74
2023/05/06 07:15:17;;;;;;;12.80;9.75;;;;;;;13.39;100.00;96403.00;5089986;28;20051;-77
2023/05/06 07:17:43;;;;;;;18.63;10.88;;;;;;;13.25;100.00;96398.59;5090427;28;20048;-74
2023/05/06 07:20:11;;;;;;;16.33;10.85;;;;;;;13.32;100.00;96398.09;5089511;28;20044;-75
2023/05/06 07:22:40;;;;;;;13.68;10.98;;;;;;;13.47;100.00;96394.75;5088840;28;20048;-73
2023/05/06 07:25:07;;;;;;;14.25;11.25;;;;;;;13.56;100.00;96400.91;5089972;28;20135;-75
2023/05/06 07:27:33;;;;;;;19.30;12.13;;;;;;;13.76;100.00;96395.75;5090868;28;20683;-74
2023/05/06 07:30:00;;;;;;;12.55;11.00;;;;;;;13.89;100.00;96402.88;5089451;28;20044;-74
2023/05/06 07:32:27;;;;;;;17.65;11.38;;;;;;;13.95;100.00;96393.31;5081180;28;20048;-75
2023/05/06 07:34:53;;;;;;;16.08;11.20;;;;;;;13.84;100.00;96392.94;5090680;28;20051;-77
2023/05/06 07:37:20;;;;;;;14.00;10.85;;;;;;;14.04;100.00;96393.19;5089927;28;20048;-75
2023/05/06 07:39:48;;;;;;;12.45;9.82;;;;;;;14.12;100.00;96397.78;5090003;28;20665;-75
2023/05/06 07:42:14;;;;;;;11.95;8.73;;;;;;;14.23;98.74;96395.41;5088196;28;20491;-76
2023/05/06 07:44:41;;;;;;;12.18;10.15;;;;;;;14.32;99.06;96402.38;5089810;28;20503;-75
2023/05/06 07:47:07;;;;;;;12.85;9.68;;;;;;;14.18;98.98;96395.63;5089282;28;20050;-74
2023/05/06 07:49:38;;;;;;;12.98;9.15;;;;;;;14.17;97.85;96397.56;5090334;28;20046;-75
2023/05/06 07:52:05;;;;;;;11.70;9.07;;;;;;;14.14;98.60;96403.72;5087682;28;20615;-75
2023/05/06 07:54:31;;;;;;;14.43;9.68;;;;;;;13.97;100.00;96409.38;5089483;28;20044;-75
2023/05/06 07:56:59;;;;;;;14.00;10.00;;;;;;;14.03;100.00;96411.56;5089704;28;20074;-75
2023/05/06 07:59:26;;;;;;;12.27;9.68;;;;;;;13.97;100.00;96412.13;5088338;28;20101;-73
2023/05/06 08:01:52;;;;;;;17.10;10.45;;;;;;;13.87;100.00;96418.81;5088642;28;20059;-74
2023/05/06 08:04:19;;;;;;;14.38;11.05;;;;;;;14.11;100.00;96418.09;5088961;28;20044;-74
2023/05/06 08:06:45;;;;;;;10.95;9.68;;;;;;;14.09;100.00;96417.63;5089895;28;20180;-73
2023/05/06 08:09:12;;;;;;;11.95;9.45;;;;;;;14.16;100.00;96417.88;5088924;28;20044;-75
2023/05/06 08:11:38;;;;;;;13.07;10.52;;;;;;;14.26;99.72;96425.66;5089555;28;20040;-74
2023/05/06 08:14:06;;;;;;;13.73;9.85;;;;;;;14.33;99.10;96427.81;5087025;27;20051;-74
2023/05/06 08:16:33;;;;;;;11.02;9.68;;;;;;;14.31;98.78;96427.38;5089686;28;20505;-74
2023/05/06 08:18:59;;;;;;;13.52;8.80;;;;;;;14.38;99.56;96426.81;5089436;28;20062;-74
2023/05/06 08:21:26;;;;;;;11.77;9.23;;;;;;;14.43;98.26;96430.13;5088761;28;20598;-75
2023/05/06 08:23:53;;;;;;;14.23;10.45;;;;;;;14.43;100.00;96430.13;5088407;28;20525;-73
2023/05/06 08:26:20;;;;;;;12.48;10.02;;;;;;;14.53;99.58;96426.97;5088129;28;20054;-74
2023/05/06 08:28:46;;;;;;;10.68;8.77;;;;;;;14.71;98.62;96435.75;5090346;28;20050;-74
2023/05/06 08:31:14;;;;;;;11.93;9.43;;;;;;;14.67;98.28;96434.88;5092901;28;20052;-74
2023/05/06 08:33:40;;;;;;;9.18;7.47;;;;;;;14.86;96.54;96437.81;5091470;27;20040;-74
2023/05/06 08:36:07;;;;;;;8.90;7.85;;;;;;;14.92;95.69;96434.84;5092857;28;20066;-74
2023/05/06 08:38:34;;;;;;;10.60;8.43;;;;;;;14.86;96.22;96440.56;5094181;28;20040;-74
2023/05/06 08:41:07;;;;;;;10.70;8.55;;;;;;;14.93;95.71;96441.91;5093899;28;20054;-74
2023/05/06 08:43:40;;;;;;;14.23;9.88;;;;;;;14.77;95.75;96439.91;5091425;27;20056;-74
2023/05/06 08:46:06;;;;;;;12.25;9.38;;;;;;;14.95;96.20;96434.16;5093248;28;20105;-74
2023/05/06 08:48:36;;;;;;;13.88;9.02;;;;;;;15.08;94.26;96438.47;5093704;28;20126;-74
2023/05/06 08:51:04;;;;;;;12.35;9.32;;;;;;;15.24;94.04;96436.63;5095048;28;20052;-74
2023/05/06 08:53:32;;;;;;;11.55;9.15;;;;;;;15.14;94.50;96437.13;5095400;28;20044;-73
2023/05/06 08:56:03;;;;;;;13.68;8.45;;;;;;;15.37;94.87;96440.16;5096469;28;20538;-73
2023/05/06 08:58:33;;;;;;;9.85;6.90;;;;;;;15.58;85.83;96434.50;5096350;28;20089;-74
2023/05/06 09:01:00;;;;;;;12.43;7.88;;;;;;;15.84;89.18;96426.66;5095436;28;20059;-74
2023/05/06 09:03:26;;;;;;;13.15;8.35;;;;;;;16.06;90.74;96435.47;5091641;27;20055;-74
2023/05/06 09:05:56;;;;;;;8.18;6.60;;;;;;;16.08;82.44;96433.19;5093284;28;20048;-74
2023/05/06 09:08:22;;;;;;;9.13;6.45;;;;;;;16.48;83.02;96435.78;5092825;28;20044;-73
2023/05/06 09:10:49;;;;;;;7.20;6.00;;;;;;;16.64;82.45;96428.34;5092733;28;20131;-74
2023/05/06 09:13:18;;;;;;;11.40;7.35;;;;;;;16.60;83.26;96440.38;5091048;27;20126;-75
2023/05/06 09:15:46;;;;;;;8.60;6.70;;;;;;;16.56;79.94;96439.53;5091792;28;20048;-73
2023/05/06 09:18:13;;;;;;;7.70;5.75;;;;;;;16.48;81.38;96443.22;5091995;28;20396;-74
2023/05/06 09:20:41;;;;;;;7.32;5.50;;;;;;;16.39;81.29;96429.66;5091012;28;20456;-73
2023/05/06 09:23:11;;;;;;;8.77;6.07;;;;;;;16.27;83.21;96438.78;5089668;28;20624;-73
2023/05/06 09:25:38;;;;;;;7.47;5.65;;;;;;;16.20;82.73;96440.56;5092386;28;20039;-73
2023/05/06 09:28:06;;;;;;;9.38;7.15;;;;;;;15.95;81.02;96442.63;5091708;28;20048;-74
2023/05/06 09:30:32;;;;;;;8.35;6.57;;;;;;;16.03;81.03;96433.44;5092373;28;20040;-74
2023/05/06 09:33:01;;;;;;;10.25;6.60;;;;;;;15.90;81.22;96432.69;5090375;27;20055;-74
2023/05/06 09:35:28;;;;;;;7.68;6.53;;;;;;;16.01;83.39;96439.25;5090843;28;20036;-72
2023/05/06 09:37:55;;;;;;;7.88;6.97;;;;;;;16.29;83.92;96436.50;5092028;28;20052;-73
2023/05/06 09:40:24;;;;;;;8.23;6.72;;;;;;;16.29;81.32;96436.50;5091118;28;20072;-74
2023/05/06 09:42:51;;;;;;;10.10;7.00;;;;;;;16.51;82.22;96426.03;5091646;28;20054;-73
2023/05/06 09:45:18;;;;;;;8.68;6.25;;;;;;;16.23;80.76;96429.63;5085530;28;20048;-74
2023/05/06 09:47:44;;;;;;;8.13;5.70;;;;;;;16.32;79.56;96423.97;5085434;28;20048;-74
2023/05/06 09:50:13;;;;;;;7.68;6.72;;;;;;;16.40;79.32;96426.56;5090174;28;20044;-74
2023/05/06 09:52:40;;;;;;;8.60;5.93;;;;;;;16.63;79.03;96428.69;5092094;28;20067;-74
2023/05/06 09:55:08;;;;;;;8.25;6.10;;;;;;;16.69;79.42;96428.06;5091604;28;20159;-74
2023/05/06 09:57:37;;;;;;;6.35;5.50;;;;;;;16.90;80.29;96427.81;5089989;28;20039;-73
2023/05/06 10:00:06;;;;;;;7.53;5.47;;;;;;;17.06;81.67;96429.75;5091457;28;20047;-75
2023/05/06 10:02:33;;;;;;;8.52;5.88;;;;;;;17.03;79.71;96430.47;5091786;28;20032;-74
2023/05/06 10:05:04;;;;;;;6.75;5.65;;;;;;;16.91;78.02;96426.69;5092224;28;20044;-75
2023/05/06 10:07:32;;;;;;;7.20;5.80;;;;;;;16.80;79.60;96428.34;5091130;28;20113;-76
2023/05/06 10:09:58;;;;;;;7.13;5.95;;;;;;;16.90;78.33;96427.81;5092735;28;20052;-75
2023/05/06 10:12:25;;;;;;;7.47;5.88;;;;;;;16.66;76.90;96428.00;5092687;28;20055;-75
2023/05/06 10:14:53;;;;;;;6.28;5.40;;;;;;;16.66;77.95;96426.03;5096298;28;20036;-76
2023/05/06 10:17:23;;;;;;;6.45;5.50;;;;;;;16.89;82.74;96428.19;5093539;28;20075;-74
2023/05/06 10:19:55;;;;;;;6.47;5.13;;;;;;;17.21;77.24;96420.66;5095814;28;20040;-74
2023/05/06 10:22:30;;;;;;;6.97;5.05;;;;;;;16.89;72.77;96420.72;5093171;28;20058;-74
2023/05/06 10:25:03;;;;;;;9.07;5.30;;;;;;;17.04;78.96;96407.31;5093590;28;20138;-74
2023/05/06 10:27:32;;;;;;;8.80;5.82;;;;;;;17.33;81.21;96409.53;5095756;27;20141;-75
2023/05/06 10:30:00;;;;;;;7.38;5.13;;;;;;;17.67;77.92;96409.84;5097651;28;20051;-74
2023/05/06 10:32:32;;;;;;;6.18;4.45;;;;;;;17.99;74.21;96405.78;5097415;28;20036;-74
2023/05/06 10:35:05;;;;;;;4.63;3.15;;;;;;;17.89;67.55;96403.63;5097077;28;20048;-74
2023/05/06 10:37:34;;;;;;;7.50;3.58;;;;;;;17.80;67.51;96397.56;5094483;28;20116;-73
2023/05/06 10:40:01;;;;;;;5.88;4.15;;;;;;;17.85;70.81;96399.19;5090465;28;20044;-74
2023/05/06 10:42:33;;;;;;;4.78;3.70;;;;;;;18.03;72.19;96394.03;5095251;28;20047;-74
2023/05/06 10:45:02;;;;;;;4.90;3.40;;;;;;;18.00;74.82;96390.84;5091753;28;20054;-74
2023/05/06 10:47:49;;;;;;;5.43;3.88;;;;;;;18.08;69.42;96391.00;5091624;28;20407;-73
2023/05/06 10:50:21;;;;;;;4.82;3.30;;;;;;;18.16;67.79;96387.19;5091103;27;20408;-75
2023/05/06 10:52:49;;;;;;;5.93;3.63;;;;;;;18.07;66.58;96383.88;5091372;28;20040;-75
2023/05/06 10:55:27;;;;;;;6.47;3.50;;;;;;;18.28;68.90;96378.75;5092591;28;20047;-73
2023/05/06 10:57:56;;;;;;;7.28;3.92;;;;;;;18.18;68.21;96373.84;5091450;28;20395;-74
2023/05/06 11:00:24;;;;;;;4.65;3.53;;;;;;;18.45;72.76;96366.44;5090340;27;20055;-73
2023/05/06 11:02:56;;;;;;;5.63;3.78;;;;;;;17.93;66.90;96381.66;5091296;28;20055;-74
2023/05/06 11:05:23;;;;;;;4.90;3.70;;;;;;;17.99;68.89;96378.22;5090365;28;20040;-74
2023/05/06 11:07:51;;;;;;;7.57;3.47;;;;;;;18.22;66.51;96366.44;5089902;28;20077;-74
2023/05/06 11:10:32;;;;;;;5.35;3.45;;;;;;;18.77;68.54;96358.69;5088404;27;20055;-73
2023/05/06 11:12:59;;;;;;;5.97;2.85;;;;;;;18.93;66.63;96353.03;5090185;28;20056;-74
2023/05/06 11:15:39;;;;;;;7.47;3.28;;;;;;;18.94;66.34;96355.41;5088492;28;20052;-73
2023/05/06 11:18:42;;;;;;;6.38;2.63;;;;;;;19.17;68.27;96357.31;5089362;27;20563;-74
2023/05/06 11:21:37;;;;;;;4.32;2.20;;;;;;;19.19;67.32;96352.19;5087803;27;20048;-74
2023/05/06 11:24:11;;;;;;;2.67;2.30;;;;;;;19.49;63.86;96361.28;5082215;28;20044;-75
2023/05/06 11:26:40;;;;;;;5.03;2.28;;;;;;;19.75;63.24;96359.66;5088137;28;20068;-74